createdAt,value
2019-05-29T00:01:56.395Z,67.73
2019-05-29T00:06:57.915Z,67.69
2019-05-29T00:11:59.297Z,67.47
2019-05-29T00:17:01.093Z,67.45
2019-05-29T00:22:02.960Z,67.56
2019-05-29T00:27:05.405Z,67.79
2019-05-29T00:32:07.323Z,67.22
2019-05-29T00:37:08.621Z,66.98
2019-05-29T00:42:11.087Z,67.74
2019-05-29T00:47:13.651Z,68.14
2019-05-29T00:52:16.632Z,68.33
2019-05-29T00:57:19.020Z,67.99
2019-05-29T01:02:20.756Z,68.75
2019-05-29T01:07:22.543Z,68.52
2019-05-29T01:12:24.471Z,70.04
2019-05-29T01:17:25.964Z,70.25
2019-05-29T01:22:27.463Z,69.91
2019-05-29T01:27:29.305Z,70.31
2019-05-29T01:32:31.046Z,69.97
2019-05-29T01:37:32.534Z,70.20
2019-05-29T01:42:34.051Z,70.32
2019-05-29T01:47:36.626Z,70.07
2019-05-29T01:52:38.303Z,70.01
2019-05-29T01:57:39.834Z,70.18
2019-05-29T02:02:41.351Z,69.94
2019-05-29T02:07:43.028Z,69.59
2019-05-29T02:12:44.567Z,70.33
2019-05-29T02:17:45.947Z,69.85
2019-05-29T02:22:47.467Z,70.04
2019-05-29T02:27:49.209Z,70.55
2019-05-29T02:32:50.698Z,69.70
2019-05-29T02:37:52.236Z,70.75
2019-05-29T02:42:54.376Z,70.61
2019-05-29T02:47:55.894Z,71.86
2019-05-29T02:52:57.730Z,72.23
2019-05-29T02:57:59.263Z,70.85
2019-05-29T03:03:01.076Z,71.31
2019-05-29T03:08:02.648Z,71.31
2019-05-29T03:13:03.976Z,71.05
2019-05-29T03:18:05.524Z,70.74
2019-05-29T03:23:07.017Z,70.67
2019-05-29T03:28:08.461Z,70.32
2019-05-29T03:33:10.439Z,71.44
2019-05-29T03:38:12.397Z,71.80
2019-05-29T03:43:13.913Z,71.26
2019-05-29T03:48:15.315Z,71.20
2019-05-29T03:53:17.017Z,72.92
2019-05-29T03:58:18.889Z,72.46
2019-05-29T04:03:20.455Z,72.91
2019-05-29T04:08:22.081Z,73.42
2019-05-29T04:13:23.616Z,74.00
2019-05-29T04:18:27.482Z,74.57
2019-05-29T04:23:34.194Z,74.95
2019-05-29T04:28:38.896Z,74.68
2019-05-29T04:33:40.147Z,74.35
2019-05-29T04:38:42.060Z,74.77
2019-05-29T04:43:43.815Z,74.69
2019-05-29T04:48:45.477Z,73.93
2019-05-29T04:53:47.077Z,73.95
2019-05-29T04:58:49.163Z,75.78
2019-05-29T05:03:50.677Z,76.10
2019-05-29T05:08:52.570Z,74.23
2019-05-29T05:13:53.989Z,74.48
2019-05-29T05:18:55.685Z,75.96
2019-05-29T05:23:57.193Z,76.15
2019-05-29T05:28:58.769Z,75.04
2019-05-29T05:34:00.392Z,73.63
2019-05-29T05:39:02.251Z,73.54
2019-05-29T05:44:04.116Z,73.69
2019-05-29T05:49:05.668Z,72.03
2019-05-29T05:54:07.215Z,70.49
2019-05-29T05:59:09.056Z,70.24
2019-05-29T06:04:10.925Z,69.04
2019-05-29T06:09:12.863Z,71.66
2019-05-29T06:14:14.799Z,69.79
2019-05-29T06:19:16.537Z,67.72
2019-05-29T06:24:22.544Z,66.45
2019-05-29T06:29:24.154Z,67.44
2019-05-29T06:34:25.641Z,67.40
2019-05-29T06:39:27.254Z,66.42
2019-05-29T06:44:29.532Z,66.49
2019-05-29T06:49:31.602Z,65.44
2019-05-29T06:54:33.146Z,65.44
2019-05-29T06:59:36.084Z,65.92
2019-05-29T07:04:38.357Z,65.71
2019-05-29T07:09:41.054Z,64.54
2019-05-29T07:14:42.544Z,64.36
2019-05-29T07:19:54.158Z,65.92
2019-05-29T07:24:47.505Z,64.65
2019-05-29T07:29:49.074Z,63.60
2019-05-29T07:35:02.781Z,62.17
2019-05-29T07:39:54.442Z,62.45
2019-05-29T07:44:56.922Z,61.67
2019-05-29T07:49:58.835Z,60.06
2019-05-29T07:55:00.316Z,59.60
2019-05-29T08:00:01.898Z,59.29
2019-05-29T08:05:04.106Z,59.87
2019-05-29T08:10:05.761Z,58.67
2019-05-29T08:15:07.321Z,57.59
2019-05-29T08:20:09.261Z,56.35
2019-05-29T08:25:10.789Z,54.90
2019-05-29T08:30:12.712Z,54.54
2019-05-29T08:35:14.435Z,51.88
2019-05-29T08:40:15.951Z,51.83
2019-05-29T08:45:17.481Z,50.50
2019-05-29T08:50:19.468Z,49.66
2019-05-29T08:55:21.578Z,48.40
2019-05-29T09:00:23.459Z,47.95
2019-05-29T09:05:25.131Z,45.15
2019-05-29T09:10:26.553Z,45.06
2019-05-29T09:15:28.454Z,46.09
2019-05-29T09:20:50.223Z,44.02
2019-05-29T09:25:33.897Z,43.32
2019-05-29T09:30:35.356Z,43.98
2019-05-29T09:35:36.883Z,42.17
2019-05-29T09:40:38.438Z,44.10
2019-05-29T09:45:40.307Z,43.92
2019-05-29T09:50:50.147Z,42.32
2019-05-29T09:55:45.880Z,43.33
2019-05-29T10:00:47.388Z,42.10
2019-05-29T10:05:48.925Z,40.87
2019-05-29T10:10:50.499Z,41.83
2019-05-29T10:15:51.974Z,40.61
2019-05-29T10:20:54.762Z,41.33
2019-05-29T10:25:58.825Z,41.50
2019-05-29T10:31:03.733Z,41.15
2019-05-29T10:36:04.659Z,40.27
2019-05-29T10:41:07.457Z,39.29
2019-05-29T10:46:09.540Z,37.92
2019-05-29T10:51:11.044Z,38.38
2019-05-29T10:56:12.654Z,37.95
2019-05-29T11:01:15.261Z,37.41
2019-05-29T11:06:16.800Z,37.97
2019-05-29T11:11:18.413Z,38.16
2019-05-29T11:16:19.960Z,36.95
2019-05-29T11:21:21.498Z,34.86
2019-05-29T11:26:23.480Z,37.21
2019-05-29T11:31:24.897Z,37.62
2019-05-29T11:36:26.337Z,36.78
2019-05-29T11:41:27.764Z,35.71
2019-05-29T11:46:29.608Z,36.13
2019-05-29T11:51:31.574Z,36.42
2019-05-29T11:56:32.955Z,36.84
2019-05-29T12:01:48.958Z,35.70
2019-05-29T12:06:38.121Z,34.40
2019-05-29T12:11:39.648Z,34.70
2019-05-29T12:16:41.178Z,34.87
2019-05-29T12:21:43.043Z,33.33
2019-05-29T12:26:45.020Z,33.57
2019-05-29T12:31:46.514Z,34.48
2019-05-29T12:36:48.164Z,35.30
2019-05-29T12:41:49.748Z,33.62
2019-05-29T12:46:53.618Z,32.58
2019-05-29T12:51:55.447Z,32.89
2019-05-29T12:57:00.658Z,32.81
2019-05-29T13:02:02.776Z,33.30
2019-05-29T13:07:04.788Z,33.02
2019-05-29T13:12:06.349Z,32.29
2019-05-29T13:17:07.929Z,34.24
2019-05-29T13:22:09.674Z,34.78
2019-05-29T13:27:11.225Z,34.71
2019-05-29T13:32:13.079Z,34.16
2019-05-29T13:37:14.579Z,36.46
2019-05-29T13:42:16.340Z,35.10
2019-05-29T13:47:18.209Z,34.21
2019-05-29T13:52:20.180Z,34.39
2019-05-29T13:57:21.780Z,32.63
2019-05-29T14:02:23.414Z,32.63
2019-05-29T14:07:24.932Z,32.80
2019-05-29T14:12:26.811Z,33.59
2019-05-29T14:17:28.422Z,33.77
2019-05-29T14:22:29.964Z,33.77
2019-05-29T14:27:32.662Z,31.86
2019-05-29T14:32:34.471Z,31.86
2019-05-29T14:37:36.322Z,33.52
2019-05-29T14:42:38.161Z,33.65
2019-05-29T14:47:39.865Z,33.02
2019-05-29T14:52:41.739Z,33.25
2019-05-29T14:57:43.566Z,32.88
2019-05-29T15:02:45.078Z,32.88
2019-05-29T15:07:46.627Z,34.12
2019-05-29T15:12:48.133Z,34.43
2019-05-29T15:17:50.089Z,34.43
2019-05-29T15:22:52.011Z,34.65
2019-05-29T15:27:53.565Z,34.39
2019-05-29T15:32:55.443Z,33.51
2019-05-29T15:37:57.697Z,33.76
2019-05-29T15:42:59.258Z,33.05
2019-05-29T15:48:00.743Z,32.96
2019-05-29T15:53:02.336Z,33.33
2019-05-29T15:58:03.893Z,32.51
2019-05-29T16:03:05.788Z,31.68
2019-05-29T16:08:07.949Z,32.29
2019-05-29T16:13:11.017Z,33.62
2019-05-29T16:18:26.206Z,33.62
2019-05-29T16:23:30.737Z,33.96
2019-05-29T16:28:19.838Z,33.60
2019-05-29T16:33:21.579Z,33.32
2019-05-29T16:38:23.415Z,33.80
2019-05-29T16:43:24.881Z,34.44
2019-05-29T16:48:26.381Z,35.36
2019-05-29T16:53:28.288Z,34.79
2019-05-29T16:58:29.891Z,34.79
2019-05-29T17:03:31.434Z,35.81
2019-05-29T17:08:32.973Z,35.11
2019-05-29T17:13:34.802Z,34.63
2019-05-29T17:18:36.275Z,34.92
2019-05-29T17:23:38.622Z,35.33
2019-05-29T17:28:40.982Z,33.96
2019-05-29T17:33:42.856Z,33.93
2019-05-29T17:38:44.437Z,35.07
2019-05-29T17:43:46.004Z,36.35
2019-05-29T17:48:48.085Z,36.86
2019-05-29T17:53:50.356Z,37.15
2019-05-29T17:58:51.962Z,37.57
2019-05-29T18:03:53.467Z,38.04
2019-05-29T18:08:55.064Z,38.60
2019-05-29T18:13:56.548Z,38.72
2019-05-29T18:18:57.922Z,39.02
2019-05-29T18:24:00.473Z,39.49
2019-05-29T18:29:01.822Z,39.79
2019-05-29T18:34:03.086Z,40.06
2019-05-29T18:39:06.197Z,40.29
2019-05-29T18:44:07.561Z,40.56
2019-05-29T18:49:09.283Z,40.94
2019-05-29T18:54:11.940Z,41.87
2019-05-29T18:59:16.067Z,42.77
2019-05-29T19:04:18.933Z,43.39
2019-05-29T19:09:21.683Z,43.65
2019-05-29T19:14:24.013Z,43.51
2019-05-29T19:19:26.170Z,44.07
2019-05-29T19:24:28.585Z,44.52
2019-05-29T19:29:31.219Z,45.00
2019-05-29T19:34:33.689Z,45.52
2019-05-29T19:39:35.277Z,46.29
2019-05-29T19:44:36.815Z,46.91
2019-05-29T19:49:38.452Z,48.07
2019-05-29T19:54:40.109Z,49.19
2019-05-29T19:59:41.634Z,49.80
2019-05-29T20:04:43.287Z,50.26
2019-05-29T20:09:45.231Z,50.08
2019-05-29T20:14:46.968Z,50.16
2019-05-29T20:19:48.609Z,50.22
2019-05-29T20:24:50.208Z,50.56
2019-05-29T20:29:51.782Z,51.68
2019-05-29T20:34:53.276Z,52.79
2019-05-29T20:39:54.989Z,52.74
2019-05-29T20:44:56.676Z,53.04
2019-05-29T20:49:58.195Z,52.78
2019-05-29T20:54:59.680Z,52.97
2019-05-29T21:00:03.568Z,52.86
2019-05-29T21:05:05.241Z,52.82
2019-05-29T21:10:06.788Z,52.78
2019-05-29T21:15:08.760Z,52.75
2019-05-29T21:20:10.677Z,52.66
2019-05-29T21:25:17.134Z,52.65
2019-05-29T21:30:15.658Z,52.74
2019-05-29T21:35:17.245Z,52.99
2019-05-29T21:40:18.748Z,53.17
2019-05-29T21:45:20.674Z,53.47
2019-05-29T21:50:22.177Z,53.66
2019-05-29T21:55:24.111Z,53.78
2019-05-29T22:00:25.634Z,53.51
2019-05-29T22:05:27.179Z,53.51
2019-05-29T22:10:28.694Z,53.39
2019-05-29T22:15:30.183Z,53.66
2019-05-29T22:20:31.494Z,54.03
2019-05-29T22:25:34.505Z,54.09
2019-05-29T22:30:36.484Z,54.20
2019-05-29T22:35:38.006Z,54.48
2019-05-29T22:40:39.531Z,54.49
2019-05-29T22:45:41.084Z,54.53
2019-05-29T22:50:42.568Z,54.44
2019-05-29T22:55:44.085Z,54.79
2019-05-29T23:00:45.588Z,54.57
2019-05-29T23:05:47.157Z,54.85
2019-05-29T23:10:48.673Z,54.54
2019-05-29T23:15:50.282Z,54.70
2019-05-29T23:20:52.371Z,54.99
2019-05-29T23:25:54.527Z,55.12
2019-05-29T23:30:56.684Z,55.27
2019-05-29T23:35:59.087Z,55.69
2019-05-29T23:41:01.489Z,55.62
2019-05-29T23:46:04.023Z,56.17
2019-05-29T23:51:05.617Z,56.29
2019-05-29T23:56:06.883Z,56.47
